Shumway, Illinois
Current Conditions -  °F | °C
As of 8:55 PM on Wednesday 26 Nov 2014 (Local Time) from K1H2 Reporting Station
Light Snow Light Snow  
Wind Chill: 31°   Ceiling: 2900
Heat Index: 31°   Visibility: 3mi
Dew Point: 28°   Wind: 3mph
Humidity: 91%   Direction: 40°NE
Pressure: 30.09"   Gusts: NA
Location:  39.19°N, 88.65°W
Report Text: K1H2 270255Z AUTO 04003KT 3SM -SN SCT004 BKN029 OVC055 M01/M02 A3009 RMK AO2 60002 T10081021
Loading
Personal Weather Stations






























Interactive Weather Map New forecast layout! Learn more

10-Day Weather Forecast

Advertisements
Track Severe Weather on mobile